Time;durP1;ratioP1;P1;durP2;ratioP2;P2;SDS_P1;SDS_P2;PMS_P1;PMS_P2;Temp;Humidity;BMP_temperature;BMP_pressure;BME280_temperature;BME280_humidity;BME280_pressure;Samples;Min_cycle;Max_cycle;Signal;HPM_P1;HPM_P2
2023/01/13 00:00:07;;;;;;;4.20;1.30;;;8.20;29.70;;;;;;6090613;23;20473;-63
2023/01/13 00:02:35;;;;;;;3.90;0.87;;;8.20;29.70;;;;;;6089564;23;20757;-63
2023/01/13 00:05:03;;;;;;;8.93;1.90;;;8.20;29.80;;;;;;6091124;23;20421;-64
2023/01/13 00:07:30;;;;;;;4.07;0.87;;;8.20;29.80;;;;;;6090655;23;20419;-64
2023/01/13 00:09:57;;;;;;;3.60;0.80;;;8.20;29.60;;;;;;6090605;23;20929;-64
2023/01/13 00:12:23;;;;;;;5.50;1.57;;;8.30;29.60;;;;;;6089280;23;20442;-63
2023/01/13 00:14:50;;;;;;;6.53;1.10;;;8.30;29.50;;;;;;6084535;23;20465;-64
2023/01/13 00:17:17;;;;;;;4.87;0.90;;;8.30;29.30;;;;;;6090985;23;20422;-64
2023/01/13 00:19:45;;;;;;;4.80;0.90;;;8.30;28.90;;;;;;6091450;23;20422;-64
2023/01/13 00:22:12;;;;;;;4.43;0.80;;;8.30;28.90;;;;;;6090901;23;20438;-64
2023/01/13 00:24:38;;;;;;;6.17;1.20;;;8.30;29.00;;;;;;6089883;23;20418;-64
2023/01/13 00:27:05;;;;;;;5.90;1.07;;;8.30;29.00;;;;;;6091477;23;20418;-64
2023/01/13 00:29:32;;;;;;;4.97;1.20;;;8.20;28.80;;;;;;6090168;23;20897;-63
2023/01/13 00:31:58;;;;;;;4.73;1.20;;;8.20;28.80;;;;;;6090277;23;20438;-63
2023/01/13 00:34:25;;;;;;;5.73;1.17;;;8.20;28.70;;;;;;6089798;23;20502;-64
2023/01/13 00:36:53;;;;;;;4.33;0.93;;;8.20;28.70;;;;;;6091009;23;20418;-66
2023/01/13 00:39:20;;;;;;;4.00;1.00;;;8.30;28.60;;;;;;6090709;23;20430;-64
2023/01/13 00:44:31;;;;;;;6.20;1.00;;;8.20;28.70;;;;;;6089792;23;20386;-64
2023/01/13 00:46:58;;;;;;;5.73;1.00;;;8.20;28.40;;;;;;6091157;23;20425;-65
2023/01/13 00:49:24;;;;;;;4.00;1.00;;;8.20;28.70;;;;;;6091202;23;20425;-64
2023/01/13 00:51:52;;;;;;;3.67;0.90;;;8.20;28.80;;;;;;6090850;23;20426;-64
2023/01/13 00:54:19;;;;;;;4.20;1.20;;;8.20;28.40;;;;;;6090623;23;20426;-64
2023/01/13 00:56:46;;;;;;;7.03;1.30;;;8.20;28.30;;;;;;6091677;23;20422;-65
2023/01/13 00:59:14;;;;;;;5.20;1.30;;;8.20;28.40;;;;;;6092921;23;20426;-64
2023/01/13 01:01:41;;;;;;;4.57;1.00;;;8.20;28.10;;;;;;6092042;23;21137;-64
2023/01/13 01:04:08;;;;;;;4.50;1.00;;;8.20;28.00;;;;;;6092321;23;20481;-64
2023/01/13 01:06:35;;;;;;;5.20;0.97;;;8.20;28.10;;;;;;6092522;23;20418;-64
2023/01/13 01:09:04;;;;;;;4.07;1.00;;;8.20;27.90;;;;;;6092635;23;20425;-64
2023/01/13 01:11:32;;;;;;;6.33;0.83;;;8.20;27.80;;;;;;6092159;23;20425;-64
2023/01/13 01:14:01;;;;;;;4.90;1.13;;;8.20;27.80;;;;;;6101769;23;20477;-64
2023/01/13 01:16:30;;;;;;;4.67;1.37;;;8.30;27.60;;;;;;6092282;23;20798;-64
2023/01/13 01:18:57;;;;;;;4.70;1.17;;;8.30;27.50;;;;;;6092656;23;20429;-64
2023/01/13 01:21:26;;;;;;;5.60;1.13;;;8.20;27.70;;;;;;6092603;23;20433;-64
2023/01/13 01:23:53;;;;;;;5.50;1.13;;;8.30;27.70;;;;;;6092169;23;20524;-64
2023/01/13 01:26:23;;;;;;;4.53;0.97;;;8.30;27.60;;;;;;6091368;23;20421;-64
2023/01/13 01:28:51;;;;;;;6.37;1.50;;;8.30;27.60;;;;;;6092189;23;20406;-64
2023/01/13 01:31:20;;;;;;;7.03;1.70;;;8.30;27.50;;;;;;6091364;23;20433;-63
2023/01/13 01:33:47;;;;;;;4.30;0.93;;;8.30;27.50;;;;;;6091522;23;20971;-65
2023/01/13 01:36:15;;;;;;;4.70;0.83;;;8.30;27.60;;;;;;6092025;23;20719;-64
2023/01/13 01:38:42;;;;;;;6.73;1.37;;;8.30;27.60;;;;;;6092063;23;20418;-63
2023/01/13 01:41:12;;;;;;;4.57;1.00;;;8.30;27.60;;;;;;6092266;23;20426;-64
2023/01/13 01:44:01;;;;;;;4.10;1.00;;;8.30;27.70;;;;;;6090524;23;21122;-63
2023/01/13 01:46:30;;;;;;;3.80;0.90;;;8.30;27.60;;;;;;6091595;23;20524;-63
2023/01/13 01:49:08;;;;;;;4.80;1.00;;;8.30;27.40;;;;;;6091117;23;20429;-64
2023/01/13 01:51:38;;;;;;;4.30;0.80;;;8.30;27.40;;;;;;6093061;23;20413;-63
2023/01/13 01:54:09;;;;;;;4.57;1.63;;;8.50;27.20;;;;;;6091681;23;20438;-64
2023/01/13 01:56:36;;;;;;;4.37;1.10;;;8.40;26.80;;;;;;6087810;23;21077;-65
2023/01/13 01:59:05;;;;;;;4.47;0.80;;;8.40;26.60;;;;;;6091675;23;20433;-63
2023/01/13 02:01:33;;;;;;;4.60;0.80;;;8.40;26.60;;;;;;6088434;23;20437;-63
2023/01/13 02:04:09;;;;;;;4.77;1.20;;;8.40;26.60;;;;;;6091894;23;20445;-63
2023/01/13 02:06:36;;;;;;;4.30;1.10;;;8.40;26.10;;;;;;6090562;23;20402;-64
2023/01/13 02:09:02;;;;;;;4.93;0.90;;;8.40;25.90;;;;;;6092760;23;20418;-64
2023/01/13 02:14:19;;;;;;;4.23;0.93;;;8.50;25.40;;;;;;6100152;23;20470;-64
2023/01/13 02:17:02;;;;;;;3.90;0.90;;;8.50;25.30;;;;;;6091748;23;20445;-64
2023/01/13 02:19:53;;;;;;;6.90;1.10;;;8.50;25.30;;;;;;6091556;23;20409;-64
2023/01/13 02:22:44;;;;;;;4.47;1.07;;;8.50;24.90;;;;;;6091139;23;20445;-63
2023/01/13 02:25:51;;;;;;;4.87;0.93;;;8.40;25.00;;;;;;6090898;23;20399;-63
2023/01/13 02:28:35;;;;;;;3.93;0.87;;;8.50;25.10;;;;;;6036608;23;20435;-63
2023/01/13 02:34:07;;;;;;;5.20;0.90;;;8.50;24.20;;;;;;6090740;23;20457;-63
2023/01/13 02:36:40;;;;;;;4.33;0.87;;;8.50;24.20;;;;;;6091517;23;20430;-64
2023/01/13 02:39:14;;;;;;;3.87;1.10;;;8.50;24.10;;;;;;6092194;23;20403;-64
2023/01/13 02:44:42;;;;;;;4.30;1.23;;;8.60;23.70;;;;;;6091223;23;20948;-64
2023/01/13 02:47:15;;;;;;;3.80;0.90;;;8.60;23.30;;;;;;6091926;23;20405;-64
2023/01/13 02:49:46;;;;;;;3.67;1.00;;;8.60;23.40;;;;;;6091406;23;20584;-64
2023/01/13 02:52:17;;;;;;;4.43;0.90;;;8.60;23.10;;;;;;6090199;23;20445;-64
2023/01/13 02:54:47;;;;;;;4.57;1.00;;;8.60;23.40;;;;;;6091112;23;20837;-64
2023/01/13 02:57:17;;;;;;;6.93;1.00;;;8.60;23.30;;;;;;6091688;23;20391;-64
2023/01/13 02:59:44;;;;;;;4.20;0.80;;;8.60;23.30;;;;;;6091755;23;20429;-63
2023/01/13 03:02:15;;;;;;;3.40;0.80;;;8.60;23.30;;;;;;6090763;23;20445;-64
2023/01/13 03:04:51;;;;;;;4.13;0.87;;;8.70;23.00;;;;;;6090425;23;20882;-65
2023/01/13 03:07:39;;;;;;;5.70;1.10;;;8.70;23.10;;;;;;6091665;23;20420;-64
2023/01/13 03:10:12;;;;;;;4.20;1.10;;;8.70;22.70;;;;;;6091294;23;20410;-64
2023/01/13 03:12:50;;;;;;;5.40;0.90;;;8.70;22.80;;;;;;6099522;23;20772;-63
2023/01/13 03:15:28;;;;;;;4.27;0.87;;;8.80;23.10;;;;;;6090901;23;20426;-63
2023/01/13 03:18:03;;;;;;;4.47;1.00;;;8.80;22.80;;;;;;6091431;23;20745;-63
2023/01/13 03:20:35;;;;;;;4.97;0.90;;;8.80;22.20;;;;;;6091011;23;20741;-64
2023/01/13 03:23:07;;;;;;;4.00;1.10;;;8.80;22.20;;;;;;6091432;23;20840;-64
2023/01/13 03:25:40;;;;;;;3.60;0.70;;;8.80;22.20;;;;;;6090527;23;20746;-64
2023/01/13 03:28:10;;;;;;;4.23;0.80;;;8.80;22.80;;;;;;6091023;23;20402;-65
2023/01/13 03:30:42;;;;;;;4.83;0.83;;;8.80;22.80;;;;;;6090252;23;20766;-64
2023/01/13 03:33:15;;;;;;;4.57;1.07;;;8.80;22.60;;;;;;6091333;23;20439;-65
2023/01/13 03:35:45;;;;;;;3.67;0.87;;;8.80;22.30;;;;;;6091284;23;20427;-65
2023/01/13 03:38:14;;;;;;;5.20;1.40;;;8.80;22.50;;;;;;6090546;23;20921;-64
2023/01/13 03:40:45;;;;;;;5.50;1.10;;;8.80;22.20;;;;;;6090451;23;20418;-63
2023/01/13 03:46:04;;;;;;;3.50;0.70;;;8.80;22.50;;;;;;6091027;23;20891;-64
2023/01/13 03:48:35;;;;;;;4.80;0.90;;;8.80;22.50;;;;;;6091107;23;20422;-66
2023/01/13 03:51:06;;;;;;;5.67;1.50;;;8.80;22.70;;;;;;6090831;23;20403;-66
2023/01/13 03:53:37;;;;;;;4.20;0.90;;;8.90;22.90;;;;;;6090774;23;20449;-67
2023/01/13 03:56:10;;;;;;;6.97;1.40;;;8.90;23.10;;;;;;6090136;23;20430;-66
2023/01/13 03:58:41;;;;;;;4.10;0.77;;;8.90;23.20;;;;;;6090656;23;20411;-66
2023/01/13 04:01:15;;;;;;;6.53;1.83;;;8.90;23.20;;;;;;6089104;23;20438;-66
2023/01/13 04:03:50;;;;;;;5.10;0.70;;;8.90;23.30;;;;;;6091325;23;20441;-66
2023/01/13 04:06:23;;;;;;;5.23;0.90;;;8.90;23.00;;;;;;6091191;23;20398;-65
2023/01/13 04:08:57;;;;;;;5.90;1.00;;;8.90;23.00;;;;;;6090692;23;20407;-65
2023/01/13 04:11:32;;;;;;;4.40;1.17;;;8.90;22.90;;;;;;6090769;23;20409;-65
2023/01/13 04:14:01;;;;;;;4.97;0.70;;;8.90;22.90;;;;;;6091033;23;20434;-65
2023/01/13 04:16:28;;;;;;;3.70;0.80;;;8.90;22.90;;;;;;6090942;23;20438;-66
2023/01/13 04:18:56;;;;;;;4.03;0.93;;;8.90;23.00;;;;;;6089768;23;20425;-66
2023/01/13 04:21:22;;;;;;;10.57;2.43;;;8.90;22.80;;;;;;6091481;23;20425;-65
2023/01/13 04:23:50;;;;;;;5.33;1.20;;;8.90;23.60;;;;;;6090541;23;20445;-65
2023/01/13 04:26:18;;;;;;;3.50;0.80;;;8.90;23.20;;;;;;6090614;23;20415;-65
2023/01/13 04:28:45;;;;;;;3.70;0.80;;;8.90;23.70;;;;;;6090661;23;20509;-65
2023/01/13 04:31:12;;;;;;;4.83;0.70;;;8.90;22.90;;;;;;6090061;23;20453;-65
2023/01/13 04:33:39;;;;;;;5.00;0.90;;;8.90;23.20;;;;;;6091911;23;20460;-65
2023/01/13 04:36:07;;;;;;;5.40;0.83;;;8.90;22.80;;;;;;6089471;23;20438;-65
2023/01/13 04:38:34;;;;;;;4.30;1.07;;;9.00;22.90;;;;;;6091167;23;20425;-65
2023/01/13 04:41:01;;;;;;;3.70;0.80;;;9.00;22.80;;;;;;6089793;23;20422;-65
2023/01/13 04:43:27;;;;;;;4.33;0.97;;;9.00;23.00;;;;;;6089473;23;20454;-66
2023/01/13 04:45:54;;;;;;;4.70;1.10;;;9.00;23.10;;;;;;6090042;23;20419;-65
2023/01/13 04:48:21;;;;;;;5.10;1.00;;;9.00;23.10;;;;;;6091800;23;20509;-66
2023/01/13 04:50:47;;;;;;;3.60;0.70;;;9.00;23.10;;;;;;6089870;23;20967;-65
2023/01/13 04:53:15;;;;;;;3.80;0.80;;;9.00;23.20;;;;;;6089543;23;20445;-65
2023/01/13 04:55:43;;;;;;;6.40;1.40;;;9.00;23.40;;;;;;6091073;23;20419;-65
2023/01/13 04:58:10;;;;;;;3.87;0.90;;;9.00;23.80;;;;;;6090822;23;20422;-65
2023/01/13 05:00:38;;;;;;;3.70;0.80;;;8.90;24.00;;;;;;6090453;23;20442;-65
2023/01/13 05:03:04;;;;;;;4.80;1.00;;;8.90;24.20;;;;;;6089993;23;20449;-65
2023/01/13 05:05:31;;;;;;;4.10;0.80;;;8.90;24.40;;;;;;6086510;23;20422;-61
2023/01/13 05:07:58;;;;;;;4.00;1.13;;;8.90;24.70;;;;;;6090793;23;20429;-62
2023/01/13 05:10:27;;;;;;;6.07;1.47;;;8.90;25.00;;;;;;6089537;23;20430;-61
2023/01/13 05:33:52;;;;;;;3.43;0.60;;;8.70;26.60;;;;;;6147562;23;20433;-62
2023/01/13 05:36:19;;;;;;;3.70;0.87;;;8.80;27.00;;;;;;6117350;23;20525;-62
2023/01/13 05:38:46;;;;;;;5.60;1.30;;;8.70;27.00;;;;;;6119139;23;20422;-61
2023/01/13 05:43:57;;;;;;;3.50;0.70;;;8.70;27.20;;;;;;6120171;23;20427;-63
2023/01/13 05:46:23;;;;;;;3.97;1.00;;;8.70;27.40;;;;;;6120859;23;20421;-63
2023/01/13 05:48:50;;;;;;;4.70;0.90;;;8.70;27.40;;;;;;6120211;23;20417;-63
2023/01/13 05:51:21;;;;;;;3.70;0.80;;;8.70;27.50;;;;;;6119740;23;20448;-63
2023/01/13 05:53:50;;;;;;;3.83;0.73;;;8.70;27.60;;;;;;6118086;23;20437;-62
2023/01/13 05:56:17;;;;;;;4.90;1.03;;;8.70;27.70;;;;;;6119471;23;20438;-62
2023/01/13 05:58:44;;;;;;;4.40;1.10;;;8.70;27.90;;;;;;6119620;23;20428;-63
2023/01/13 06:01:11;;;;;;;4.20;0.97;;;8.70;28.20;;;;;;6119387;23;20437;-62
2023/01/13 06:03:38;;;;;;;5.40;0.83;;;8.70;28.60;;;;;;6119792;23;20969;-63
2023/01/13 06:06:07;;;;;;;3.43;0.77;;;8.70;29.00;;;;;;6118498;23;20422;-62
2023/01/13 06:08:35;;;;;;;4.47;0.80;;;8.70;29.60;;;;;;6119649;23;20508;-62
2023/01/13 06:11:02;;;;;;;4.43;0.90;;;8.70;30.00;;;;;;6120665;23;20425;-62
2023/01/13 06:22:13;;;;;;;5.17;0.83;;;8.90;30.50;;;;;;6121094;23;20444;-62
2023/01/13 06:25:08;;;;;;;3.40;0.63;;;8.90;30.70;;;;;;6031871;23;20490;-64
2023/01/13 06:27:35;;;;;;;3.80;1.23;;;8.90;30.90;;;;;;6072278;23;20414;-62
2023/01/13 06:30:03;;;;;;;3.90;0.90;;;8.90;31.00;;;;;;6098549;23;21029;-63
2023/01/13 06:32:37;;;;;;;4.40;1.00;;;8.90;31.10;;;;;;6090234;23;20438;-63
2023/01/13 06:35:09;;;;;;;3.73;0.87;;;9.00;31.20;;;;;;6098197;23;20511;-67
2023/01/13 06:37:37;;;;;;;3.87;0.70;;;9.00;31.30;;;;;;6099179;23;20513;-66
2023/01/13 06:40:08;;;;;;;3.90;0.93;;;9.00;31.20;;;;;;6087919;23;20437;-64
2023/01/13 06:45:23;;;;;;;3.20;0.60;;;9.00;31.30;;;;;;6094460;23;20489;-65
2023/01/13 06:47:50;;;;;;;3.60;0.80;;;9.00;31.20;;;;;;6088927;23;20418;-65
2023/01/13 06:50:19;;;;;;;4.40;0.83;;;9.00;31.30;;;;;;6090565;23;20984;-64
2023/01/13 06:55:54;;;;;;;6.50;0.83;;;9.00;31.30;;;;;;6119298;23;20433;-64
2023/01/13 06:58:21;;;;;;;5.10;1.20;;;9.10;31.40;;;;;;6117688;23;21003;-65
2023/01/13 07:00:50;;;;;;;3.43;0.77;;;9.10;31.30;;;;;;6115916;23;20955;-65
2023/01/13 07:03:17;;;;;;;4.53;0.80;;;9.00;31.30;;;;;;6118767;23;20469;-68
2023/01/13 07:05:51;;;;;;;3.80;0.70;;;9.00;31.30;;;;;;6114339;23;20423;-65
2023/01/13 07:08:18;;;;;;;3.50;0.63;;;9.00;31.30;;;;;;6118960;23;20412;-68
2023/01/13 07:10:45;;;;;;;5.83;1.10;;;9.00;31.30;;;;;;6115160;23;20448;-68
2023/01/13 07:15:59;;;;;;;4.17;0.90;;;9.00;31.40;;;;;;6116334;23;20454;-69
2023/01/13 07:18:27;;;;;;;3.53;0.60;;;9.10;31.20;;;;;;6118258;23;20417;-68
2023/01/13 07:20:56;;;;;;;4.57;0.90;;;9.00;31.30;;;;;;6127252;23;20436;-68
2023/01/13 07:23:23;;;;;;;4.00;1.00;;;9.10;31.30;;;;;;6116910;23;20461;-66
2023/01/13 07:25:50;;;;;;;4.20;0.97;;;9.10;31.40;;;;;;6128422;23;20478;-66
2023/01/13 07:28:18;;;;;;;3.53;0.73;;;9.10;31.20;;;;;;6119232;23;20409;-66
2023/01/13 07:30:45;;;;;;;4.93;1.00;;;9.20;31.00;;;;;;6119575;23;20429;-67
2023/01/13 07:33:12;;;;;;;5.13;0.80;;;9.10;31.00;;;;;;6119300;23;20442;-67
2023/01/13 07:35:39;;;;;;;4.47;0.90;;;9.20;30.90;;;;;;6119775;23;20417;-66
2023/01/13 07:38:07;;;;;;;6.13;0.70;;;9.20;30.90;;;;;;6117646;23;20773;-67
2023/01/13 07:40:33;;;;;;;3.80;0.70;;;9.20;30.60;;;;;;6119813;23;20422;-67
2023/01/13 07:45:46;;;;;;;3.60;0.63;;;9.30;30.70;;;;;;6118255;23;20398;-66
2023/01/13 07:48:13;;;;;;;3.70;0.80;;;9.30;30.80;;;;;;6113034;23;20682;-65
2023/01/13 07:50:39;;;;;;;4.53;0.70;;;9.30;30.90;;;;;;6119369;23;20420;-67
2023/01/13 07:53:06;;;;;;;3.37;0.70;;;9.30;30.90;;;;;;6115766;23;20445;-67
2023/01/13 07:55:33;;;;;;;3.20;0.70;;;9.30;30.80;;;;;;6115272;23;20421;-66
2023/01/13 07:58:00;;;;;;;4.07;0.67;;;9.40;30.50;;;;;;6117436;23;20962;-66
2023/01/13 08:00:26;;;;;;;3.10;0.50;;;9.40;30.60;;;;;;6118300;23;20418;-62
2023/01/13 08:23:49;;;;;;;4.00;0.70;;;9.40;31.10;;;;;;6118463;23;21041;-61
2023/01/13 08:26:17;;;;;;;3.63;0.87;;;9.40;31.20;;;;;;6119470;23;20891;-60
2023/01/13 08:28:45;;;;;;;4.07;0.80;;;9.50;31.10;;;;;;6117728;23;20923;-61
2023/01/13 08:31:14;;;;;;;3.20;0.67;;;9.50;31.00;;;;;;6118557;23;20445;-61
2023/01/13 08:33:59;;;;;;;4.43;0.70;;;9.50;30.80;;;;;;6098642;23;20446;-61
2023/01/13 08:36:34;;;;;;;4.47;0.87;;;9.50;30.90;;;;;;6094835;23;20539;-60
2023/01/13 08:39:17;;;;;;;3.40;0.60;;;9.60;31.00;;;;;;6094978;23;20422;-63
2023/01/13 08:41:57;;;;;;;3.70;0.80;;;9.60;30.90;;;;;;6093156;23;20487;-64
2023/01/13 08:44:31;;;;;;;4.27;0.60;;;9.60;31.10;;;;;;6097939;23;20533;-63
2023/01/13 08:46:59;;;;;;;3.50;0.63;;;9.60;31.10;;;;;;6098558;23;20449;-65
2023/01/13 08:49:33;;;;;;;3.60;0.60;;;9.60;31.00;;;;;;6098958;23;20414;-63
2023/01/13 08:52:00;;;;;;;3.83;0.90;;;9.70;31.00;;;;;;6097496;23;20449;-66
2023/01/13 08:54:29;;;;;;;4.03;0.70;;;9.70;31.00;;;;;;6087756;23;20505;-65
2023/01/13 08:57:08;;;;;;;3.50;0.63;;;9.70;30.80;;;;;;6092568;23;20474;-63
2023/01/13 08:59:37;;;;;;;4.33;0.80;;;9.80;30.60;;;;;;6094923;23;20453;-61
2023/01/13 09:02:21;;;;;;;4.20;0.80;;;9.90;30.50;;;;;;6086139;23;20457;-62
2023/01/13 09:04:50;;;;;;;5.13;0.90;;;10.10;30.30;;;;;;6097181;23;20453;-62
2023/01/13 09:07:23;;;;;;;3.97;0.70;;;10.30;29.50;;;;;;6099181;23;20453;-63
2023/01/13 09:10:11;;;;;;;3.40;0.60;;;10.30;29.00;;;;;;6097866;23;20422;-61
2023/01/13 09:15:22;;;;;;;3.37;0.77;;;10.40;28.70;;;;;;6082556;23;20398;-65
2023/01/13 09:17:56;;;;;;;4.67;0.73;;;10.50;28.50;;;;;;6086233;23;20485;-60
2023/01/13 09:20:28;;;;;;;4.43;0.80;;;10.60;28.10;;;;;;6097680;23;20461;-61
2023/01/13 09:23:04;;;;;;;4.77;0.80;;;10.80;27.70;;;;;;6098956;23;20445;-61
2023/01/13 09:25:48;;;;;;;5.00;0.70;;;10.80;27.30;;;;;;6065006;23;20422;-61
2023/01/13 09:28:24;;;;;;;4.43;0.80;;;10.80;27.70;;;;;;6099372;23;20485;-61
2023/01/13 09:30:57;;;;;;;6.13;1.27;;;10.90;27.60;;;;;;6095024;23;21065;-61
2023/01/13 09:36:14;;;;;;;3.50;0.70;;;11.00;27.00;;;;;;6098017;23;21207;-61
2023/01/13 09:38:44;;;;;;;3.50;0.80;;;11.00;27.30;;;;;;6100915;23;20557;-64
2023/01/13 10:31:12;;;;;;;4.67;1.07;;;11.80;25.70;;;;;;6089714;23;20454;-61
2023/01/13 10:33:38;;;;;;;3.50;0.60;;;12.00;25.50;;;;;;6119533;23;20438;-67
2023/01/13 10:36:14;;;;;;;3.30;0.50;;;12.10;24.90;;;;;;6120042;23;20421;-61
2023/01/13 10:38:42;;;;;;;5.80;0.50;;;12.20;24.20;;;;;;6119182;23;20853;-61
2023/01/13 10:41:19;;;;;;;3.40;0.80;;;12.40;24.00;;;;;;6119817;23;20418;-61
2023/01/13 10:43:59;;;;;;;7.63;0.70;;;12.60;23.70;;;;;;6120024;23;20444;-61
2023/01/13 10:46:28;;;;;;;3.30;0.60;;;12.70;22.70;;;;;;6119322;23;20409;-61
2023/01/13 10:48:57;;;;;;;3.90;0.60;;;12.80;22.70;;;;;;6120594;23;20417;-62
2023/01/13 10:51:26;;;;;;;3.20;0.40;;;12.80;22.40;;;;;;6117608;23;20422;-63
2023/01/13 11:00:05;;;;;;;4.33;0.80;;;12.80;22.20;;;;;;5938143;24;20454;-62
2023/01/13 11:15:57;;;;;;;3.50;0.60;;;14.40;17.30;;;;;;6098731;23;20967;-62
2023/01/13 11:18:40;;;;;;;3.80;0.57;;;14.00;18.60;;;;;;6090433;23;20437;-62
2023/01/13 11:21:12;;;;;;;3.60;0.77;;;13.70;19.30;;;;;;6085108;23;20403;-64
2023/01/13 11:23:47;;;;;;;3.57;0.50;;;13.40;19.50;;;;;;6085768;23;20445;-62
2023/01/13 11:26:21;;;;;;;3.40;0.70;;;13.20;20.30;;;;;;6083707;23;20413;-61
2023/01/13 11:28:52;;;;;;;3.70;0.47;;;13.00;22.00;;;;;;6090415;23;20403;-62
2023/01/13 11:31:27;;;;;;;3.50;0.73;;;13.00;22.10;;;;;;6088423;23;20783;-62
2023/01/13 12:34:27;;;;;;;3.70;0.70;;;13.70;19.20;;;;;;6120263;23;20533;-61
2023/01/13 12:37:07;;;;;;;3.20;0.40;;;13.60;19.40;;;;;;6091977;23;20465;-64
2023/01/13 12:39:45;;;;;;;3.30;0.50;;;13.30;17.20;;;;;;6089247;23;20395;-63
2023/01/13 15:10:17;;;;;;;12.03;3.83;;;8.40;28.20;;;;;;6106650;23;20458;-63
2023/01/13 15:25:42;;;;;;;5.67;2.10;;;8.30;28.60;;;;;;6089393;23;20574;-63
2023/01/13 15:28:17;;;;;;;6.30;1.90;;;8.20;28.70;;;;;;6092152;23;20739;-63
2023/01/13 15:30:43;;;;;;;4.87;0.90;;;8.20;28.70;;;;;;6090943;23;20430;-62
2023/01/13 15:38:23;;;;;;;8.00;3.20;;;8.20;28.50;;;;;;6105411;23;20473;-73
2023/01/13 15:40:52;;;;;;;6.40;2.70;;;8.20;28.70;;;;;;6086835;23;20419;-64
2023/01/13 19:46:52;;;;;;;6.73;2.67;;;7.10;31.20;;;;;;6122907;23;20444;-60
2023/01/13 19:49:18;;;;;;;84.17;54.13;;;7.00;31.80;;;;;;6092248;23;20414;-60
2023/01/13 20:30:48;;;;;;;5.20;0.70;;;5.90;34.80;;;;;;6204115;22;1244106;-68
2023/01/13 21:35:27;;;;;;;4.73;1.00;;;5.40;36.50;;;;;;6131537;23;20381;-61
2023/01/13 21:37:54;;;;;;;386.60;234.20;;;5.30;36.60;;;;;;6117057;23;20425;-60
2023/01/13 21:40:21;;;;;;;66.90;38.90;;;5.30;37.30;;;;;;6122018;23;20413;-61
2023/01/13 21:48:16;;;;;;;5.60;1.20;;;5.20;36.90;;;;;;6121544;23;20453;-62
2023/01/13 21:50:44;;;;;;;5.30;1.27;;;5.20;37.00;;;;;;6127398;23;20443;-77
2023/01/13 21:53:11;;;;;;;4.13;1.20;;;5.20;37.10;;;;;;6150310;23;20429;-76
2023/01/13 21:55:37;;;;;;;7.10;1.00;;;5.20;36.90;;;;;;6152197;23;20417;-76
2023/01/13 21:58:10;;;;;;;5.10;1.07;;;5.20;36.90;;;;;;6150714;23;20788;-76
2023/01/13 22:00:38;;;;;;;3.90;0.90;;;5.20;36.80;;;;;;6138286;23;20453;-77
2023/01/13 22:03:05;;;;;;;4.20;1.60;;;5.20;36.80;;;;;;6090431;23;20414;-77
2023/01/13 22:05:32;;;;;;;8.77;1.50;;;5.20;36.80;;;;;;6089138;23;20418;-77
2023/01/13 22:08:01;;;;;;;5.57;1.77;;;5.10;36.90;;;;;;6087042;23;20904;-76
2023/01/13 22:10:29;;;;;;;5.80;1.17;;;5.20;37.10;;;;;;6076216;23;20445;-76
2023/01/13 22:12:57;;;;;;;7.40;1.33;;;5.20;37.20;;;;;;6086543;23;20960;-76
2023/01/13 22:15:27;;;;;;;4.37;1.30;;;5.30;37.30;;;;;;6079744;23;20423;-76
2023/01/13 22:17:58;;;;;;;4.93;1.33;;;5.30;37.20;;;;;;6088307;23;20426;-76
2023/01/13 22:20:24;;;;;;;5.80;1.57;;;5.30;37.10;;;;;;6096852;23;20964;-76
2023/01/13 22:22:51;;;;;;;3.90;1.50;;;5.40;37.10;;;;;;6087634;23;20422;-76
2023/01/13 22:25:20;;;;;;;4.47;1.37;;;5.30;37.20;;;;;;6082471;23;20505;-77
2023/01/13 22:27:48;;;;;;;7.40;1.30;;;5.30;37.30;;;;;;6088745;23;20429;-74
2023/01/13 22:30:17;;;;;;;6.27;1.37;;;5.40;37.50;;;;;;6083772;23;20431;-77
2023/01/13 22:32:44;;;;;;;4.50;1.70;;;5.30;37.70;;;;;;6095824;23;20445;-74
2023/01/13 22:35:13;;;;;;;5.27;1.33;;;5.30;37.90;;;;;;6084779;23;20422;-75
2023/01/13 22:37:41;;;;;;;4.40;1.03;;;5.40;38.00;;;;;;6101635;23;20419;-75
2023/01/13 22:40:10;;;;;;;5.40;1.17;;;5.40;37.90;;;;;;6100786;23;20443;-75
2023/01/13 22:42:39;;;;;;;5.40;1.10;;;5.40;38.00;;;;;;6091994;23;20425;-74
2023/01/13 22:45:09;;;;;;;5.50;1.37;;;5.50;37.90;;;;;;6091707;23;20426;-74
2023/01/13 22:47:36;;;;;;;5.20;1.40;;;5.50;37.80;;;;;;6091738;23;20687;-74
2023/01/13 22:50:03;;;;;;;5.10;1.23;;;5.50;37.90;;;;;;6088219;23;20418;-75
2023/01/13 22:52:30;;;;;;;4.27;1.13;;;5.50;37.90;;;;;;6090864;23;20450;-74
2023/01/13 22:54:59;;;;;;;9.43;2.70;;;5.50;37.90;;;;;;6090466;23;20448;-75
2023/01/13 22:57:26;;;;;;;6.60;1.40;;;5.50;37.90;;;;;;6093422;23;20465;-75
2023/01/13 22:59:54;;;;;;;4.40;1.13;;;5.50;37.90;;;;;;6101032;23;20518;-75
2023/01/13 23:02:21;;;;;;;4.40;1.30;;;5.40;37.80;;;;;;6091321;23;20446;-76
2023/01/13 23:04:49;;;;;;;6.20;1.70;;;5.40;37.90;;;;;;6091662;23;20422;-73
2023/01/13 23:07:16;;;;;;;6.20;1.50;;;5.40;38.00;;;;;;6091633;23;20509;-75
2023/01/13 23:09:43;;;;;;;7.33;2.23;;;5.50;38.30;;;;;;6090630;23;20497;-75
2023/01/13 23:12:09;;;;;;;4.63;1.50;;;5.50;38.50;;;;;;6087476;23;20506;-75
2023/01/13 23:14:36;;;;;;;4.30;1.80;;;5.50;39.20;;;;;;6101205;23;20442;-74
2023/01/13 23:17:05;;;;;;;4.60;1.57;;;5.50;38.70;;;;;;6086894;23;20419;-75
2023/01/13 23:19:32;;;;;;;7.80;1.90;;;5.50;38.80;;;;;;6098869;23;20541;-76
2023/01/13 23:21:59;;;;;;;4.80;1.27;;;5.50;38.80;;;;;;6090223;23;20537;-75
2023/01/13 23:24:28;;;;;;;5.97;2.17;;;5.50;39.00;;;;;;6092233;23;20414;-75
2023/01/13 23:26:54;;;;;;;4.40;1.33;;;5.50;39.10;;;;;;6092048;23;20964;-74
2023/01/13 23:29:21;;;;;;;5.83;1.23;;;5.50;39.20;;;;;;6091258;23;20912;-74
2023/01/13 23:31:48;;;;;;;4.20;1.10;;;5.50;39.30;;;;;;6089680;23;20450;-75
2023/01/13 23:34:16;;;;;;;4.40;1.43;;;5.50;39.60;;;;;;6090882;23;20446;-75
2023/01/13 23:36:43;;;;;;;5.77;1.60;;;5.50;39.50;;;;;;6091108;23;20486;-75
2023/01/13 23:39:10;;;;;;;6.10;1.20;;;5.50;39.50;;;;;;6102193;23;20429;-75
2023/01/13 23:41:37;;;;;;;4.57;1.17;;;5.50;39.60;;;;;;6088364;23;20442;-75
2023/01/13 23:44:05;;;;;;;6.93;1.33;;;5.50;39.60;;;;;;6087428;23;20420;-75
2023/01/13 23:46:33;;;;;;;5.60;1.03;;;5.50;39.60;;;;;;6090049;23;20454;-75
2023/01/13 23:49:02;;;;;;;4.10;1.10;;;5.50;39.50;;;;;;6090937;23;20789;-74
2023/01/13 23:51:30;;;;;;;9.07;1.40;;;5.60;39.40;;;;;;6087202;23;20477;-75
2023/01/13 23:53:58;;;;;;;5.20;1.23;;;5.60;39.30;;;;;;6090345;23;20473;-77
2023/01/13 23:56:27;;;;;;;3.80;1.00;;;5.60;39.10;;;;;;6086789;23;20422;-73
2023/01/13 23:58:54;;;;;;;8.07;1.50;;;5.60;38.90;;;;;;6093064;23;20424;-75
